sensor_id;sensor_type;location;lat;lon;timestamp;P1;durP1;ratioP1;P2;durP2;ratioP2
23236;SDS011;11787;52.018;8.570;2022-08-25T00:01:11;5.05;;;2.10;;
23236;SDS011;11787;52.018;8.570;2022-08-25T00:03:46;3.45;;;2.00;;
23236;SDS011;11787;52.018;8.570;2022-08-25T00:06:12;5.82;;;2.45;;
23236;SDS011;11787;52.018;8.570;2022-08-25T00:08:39;3.53;;;2.30;;
23236;SDS011;11787;52.018;8.570;2022-08-25T00:11:09;3.25;;;2.13;;
23236;SDS011;11787;52.018;8.570;2022-08-25T00:13:43;3.70;;;2.15;;
23236;SDS011;11787;52.018;8.570;2022-08-25T00:16:12;5.80;;;2.28;;
23236;SDS011;11787;52.018;8.570;2022-08-25T00:18:41;6.53;;;2.40;;
23236;SDS011;11787;52.018;8.570;2022-08-25T00:21:12;3.50;;;2.42;;
23236;SDS011;11787;52.018;8.570;2022-08-25T00:23:38;3.28;;;2.20;;
23236;SDS011;11787;52.018;8.570;2022-08-25T00:26:04;4.15;;;2.28;;
23236;SDS011;11787;52.018;8.570;2022-08-25T00:28:30;4.22;;;2.38;;
23236;SDS011;11787;52.018;8.570;2022-08-25T00:30:56;4.43;;;2.40;;
23236;SDS011;11787;52.018;8.570;2022-08-25T00:33:23;5.15;;;2.15;;
23236;SDS011;11787;52.018;8.570;2022-08-25T00:35:50;4.43;;;2.35;;
23236;SDS011;11787;52.018;8.570;2022-08-25T00:38:16;4.53;;;2.63;;
23236;SDS011;11787;52.018;8.570;2022-08-25T00:40:42;9.02;;;2.60;;
23236;SDS011;11787;52.018;8.570;2022-08-25T00:43:08;4.93;;;2.47;;
23236;SDS011;11787;52.018;8.570;2022-08-25T00:45:34;2.60;;;2.00;;
23236;SDS011;11787;52.018;8.570;2022-08-25T00:48:01;4.43;;;2.67;;
23236;SDS011;11787;52.018;8.570;2022-08-25T00:50:28;4.20;;;2.30;;
23236;SDS011;11787;52.018;8.570;2022-08-25T00:52:56;3.50;;;2.30;;
23236;SDS011;11787;52.018;8.570;2022-08-25T00:55:30;4.03;;;1.98;;
23236;SDS011;11787;52.018;8.570;2022-08-25T00:58:07;6.13;;;2.20;;
23236;SDS011;11787;52.018;8.570;2022-08-25T01:00:39;6.38;;;2.38;;
23236;SDS011;11787;52.018;8.570;2022-08-25T01:03:10;4.25;;;2.60;;
23236;SDS011;11787;52.018;8.570;2022-08-25T01:05:36;4.20;;;2.25;;
23236;SDS011;11787;52.018;8.570;2022-08-25T01:08:03;5.38;;;2.42;;
23236;SDS011;11787;52.018;8.570;2022-08-25T01:10:31;4.55;;;2.47;;
23236;SDS011;11787;52.018;8.570;2022-08-25T01:13:01;4.75;;;2.28;;
23236;SDS011;11787;52.018;8.570;2022-08-25T01:15:31;4.53;;;2.38;;
23236;SDS011;11787;52.018;8.570;2022-08-25T01:17:58;4.03;;;2.30;;
23236;SDS011;11787;52.018;8.570;2022-08-25T01:20:25;4.63;;;2.70;;
23236;SDS011;11787;52.018;8.570;2022-08-25T01:22:53;3.97;;;2.60;;
23236;SDS011;11787;52.018;8.570;2022-08-25T01:27:51;4.40;;;2.45;;
23236;SDS011;11787;52.018;8.570;2022-08-25T01:30:16;3.05;;;2.30;;
23236;SDS011;11787;52.018;8.570;2022-08-25T01:32:43;3.92;;;2.30;;
23236;SDS011;11787;52.018;8.570;2022-08-25T01:35:09;7.28;;;2.33;;
23236;SDS011;11787;52.018;8.570;2022-08-25T01:37:35;2.80;;;2.38;;
23236;SDS011;11787;52.018;8.570;2022-08-25T01:40:01;5.93;;;2.63;;
23236;SDS011;11787;52.018;8.570;2022-08-25T01:42:37;4.55;;;2.30;;
23236;SDS011;11787;52.018;8.570;2022-08-25T01:45:13;5.03;;;3.00;;
23236;SDS011;11787;52.018;8.570;2022-08-25T01:47:39;4.22;;;2.50;;
23236;SDS011;11787;52.018;8.570;2022-08-25T01:50:04;4.13;;;2.33;;
23236;SDS011;11787;52.018;8.570;2022-08-25T01:52:32;4.70;;;2.83;;
23236;SDS011;11787;52.018;8.570;2022-08-25T01:55:09;4.00;;;2.35;;
23236;SDS011;11787;52.018;8.570;2022-08-25T01:57:34;5.38;;;2.88;;
23236;SDS011;11787;52.018;8.570;2022-08-25T02:00:00;4.63;;;2.50;;
23236;SDS011;11787;52.018;8.570;2022-08-25T02:02:26;4.93;;;2.40;;
23236;SDS011;11787;52.018;8.570;2022-08-25T02:04:52;6.30;;;3.20;;
23236;SDS011;11787;52.018;8.570;2022-08-25T02:07:17;4.38;;;2.55;;
23236;SDS011;11787;52.018;8.570;2022-08-25T02:09:44;5.10;;;2.60;;
23236;SDS011;11787;52.018;8.570;2022-08-25T02:12:09;5.00;;;2.88;;
23236;SDS011;11787;52.018;8.570;2022-08-25T02:14:35;5.25;;;2.38;;
23236;SDS011;11787;52.018;8.570;2022-08-25T02:17:02;3.58;;;2.65;;
23236;SDS011;11787;52.018;8.570;2022-08-25T02:19:28;5.25;;;2.65;;
23236;SDS011;11787;52.018;8.570;2022-08-25T02:21:55;3.78;;;2.72;;
23236;SDS011;11787;52.018;8.570;2022-08-25T02:24:22;3.75;;;2.50;;
23236;SDS011;11787;52.018;8.570;2022-08-25T02:26:47;5.70;;;2.78;;
23236;SDS011;11787;52.018;8.570;2022-08-25T02:29:14;5.80;;;2.53;;
23236;SDS011;11787;52.018;8.570;2022-08-25T02:31:41;4.03;;;2.47;;
23236;SDS011;11787;52.018;8.570;2022-08-25T02:34:07;4.28;;;2.60;;
23236;SDS011;11787;52.018;8.570;2022-08-25T02:36:34;6.28;;;2.95;;
23236;SDS011;11787;52.018;8.570;2022-08-25T02:39:00;3.72;;;2.35;;
23236;SDS011;11787;52.018;8.570;2022-08-25T02:41:27;5.28;;;2.90;;
23236;SDS011;11787;52.018;8.570;2022-08-25T02:43:54;4.47;;;2.60;;
23236;SDS011;11787;52.018;8.570;2022-08-25T02:46:20;3.53;;;2.80;;
23236;SDS011;11787;52.018;8.570;2022-08-25T02:48:47;4.07;;;2.50;;
23236;SDS011;11787;52.018;8.570;2022-08-25T02:51:13;4.97;;;2.50;;
23236;SDS011;11787;52.018;8.570;2022-08-25T02:53:39;4.97;;;2.72;;
23236;SDS011;11787;52.018;8.570;2022-08-25T02:56:06;5.82;;;2.88;;
23236;SDS011;11787;52.018;8.570;2022-08-25T02:58:34;4.45;;;3.00;;
23236;SDS011;11787;52.018;8.570;2022-08-25T03:01:01;4.28;;;2.80;;
23236;SDS011;11787;52.018;8.570;2022-08-25T03:03:27;4.45;;;2.80;;
23236;SDS011;11787;52.018;8.570;2022-08-25T03:05:52;4.78;;;2.92;;
23236;SDS011;11787;52.018;8.570;2022-08-25T03:08:20;4.20;;;2.42;;
23236;SDS011;11787;52.018;8.570;2022-08-25T03:10:45;5.55;;;2.90;;
23236;SDS011;11787;52.018;8.570;2022-08-25T03:13:11;8.32;;;3.05;;
23236;SDS011;11787;52.018;8.570;2022-08-25T03:15:37;4.38;;;2.67;;
23236;SDS011;11787;52.018;8.570;2022-08-25T03:18:03;3.28;;;2.78;;
23236;SDS011;11787;52.018;8.570;2022-08-25T03:20:29;6.03;;;2.97;;
23236;SDS011;11787;52.018;8.570;2022-08-25T03:22:56;4.85;;;3.10;;
23236;SDS011;11787;52.018;8.570;2022-08-25T03:25:21;3.22;;;2.75;;
23236;SDS011;11787;52.018;8.570;2022-08-25T03:28:06;4.47;;;2.70;;
23236;SDS011;11787;52.018;8.570;2022-08-25T03:30:32;5.80;;;2.90;;
23236;SDS011;11787;52.018;8.570;2022-08-25T03:32:58;4.35;;;3.03;;
23236;SDS011;11787;52.018;8.570;2022-08-25T03:35:24;4.43;;;2.53;;
23236;SDS011;11787;52.018;8.570;2022-08-25T03:37:52;4.28;;;2.95;;
23236;SDS011;11787;52.018;8.570;2022-08-25T03:40:20;5.55;;;2.90;;
23236;SDS011;11787;52.018;8.570;2022-08-25T03:42:46;5.05;;;3.13;;
23236;SDS011;11787;52.018;8.570;2022-08-25T03:45:12;5.20;;;3.05;;
23236;SDS011;11787;52.018;8.570;2022-08-25T03:47:40;4.80;;;2.90;;
23236;SDS011;11787;52.018;8.570;2022-08-25T03:50:07;4.50;;;3.17;;
23236;SDS011;11787;52.018;8.570;2022-08-25T03:52:34;6.55;;;3.25;;
23236;SDS011;11787;52.018;8.570;2022-08-25T03:55:02;6.65;;;3.15;;
23236;SDS011;11787;52.018;8.570;2022-08-25T03:57:29;5.63;;;2.80;;
23236;SDS011;11787;52.018;8.570;2022-08-25T03:59:54;5.13;;;3.20;;
23236;SDS011;11787;52.018;8.570;2022-08-25T04:02:20;5.15;;;3.10;;
23236;SDS011;11787;52.018;8.570;2022-08-25T04:04:46;7.60;;;3.58;;
23236;SDS011;11787;52.018;8.570;2022-08-25T04:07:11;11.70;;;3.53;;
23236;SDS011;11787;52.018;8.570;2022-08-25T04:09:37;7.22;;;3.10;;
23236;SDS011;11787;52.018;8.570;2022-08-25T04:12:03;4.47;;;3.20;;
23236;SDS011;11787;52.018;8.570;2022-08-25T04:14:28;8.15;;;3.35;;
23236;SDS011;11787;52.018;8.570;2022-08-25T04:16:55;3.80;;;3.22;;
23236;SDS011;11787;52.018;8.570;2022-08-25T04:19:21;6.22;;;3.10;;
23236;SDS011;11787;52.018;8.570;2022-08-25T04:21:46;4.68;;;3.17;;
23236;SDS011;11787;52.018;8.570;2022-08-25T04:24:13;7.43;;;3.13;;
23236;SDS011;11787;52.018;8.570;2022-08-25T04:26:43;5.70;;;3.58;;
23236;SDS011;11787;52.018;8.570;2022-08-25T04:29:11;4.93;;;3.58;;
23236;SDS011;11787;52.018;8.570;2022-08-25T04:31:38;5.65;;;3.88;;
23236;SDS011;11787;52.018;8.570;2022-08-25T04:34:05;6.40;;;3.92;;
23236;SDS011;11787;52.018;8.570;2022-08-25T04:36:32;6.72;;;3.92;;
23236;SDS011;11787;52.018;8.570;2022-08-25T04:38:58;6.57;;;3.58;;
23236;SDS011;11787;52.018;8.570;2022-08-25T04:41:24;10.48;;;3.85;;
23236;SDS011;11787;52.018;8.570;2022-08-25T04:43:51;8.27;;;3.60;;
23236;SDS011;11787;52.018;8.570;2022-08-25T04:46:21;5.68;;;3.65;;
23236;SDS011;11787;52.018;8.570;2022-08-25T04:48:48;4.20;;;3.58;;
23236;SDS011;11787;52.018;8.570;2022-08-25T04:51:16;5.45;;;3.55;;
23236;SDS011;11787;52.018;8.570;2022-08-25T04:53:43;6.68;;;3.50;;
23236;SDS011;11787;52.018;8.570;2022-08-25T04:56:11;6.25;;;3.40;;
23236;SDS011;11787;52.018;8.570;2022-08-25T04:58:37;7.30;;;3.40;;
23236;SDS011;11787;52.018;8.570;2022-08-25T05:01:14;5.07;;;3.78;;
23236;SDS011;11787;52.018;8.570;2022-08-25T05:03:42;5.60;;;4.00;;
23236;SDS011;11787;52.018;8.570;2022-08-25T05:06:09;7.22;;;3.58;;
23236;SDS011;11787;52.018;8.570;2022-08-25T05:08:35;6.22;;;3.78;;
23236;SDS011;11787;52.018;8.570;2022-08-25T05:11:08;5.68;;;3.38;;
23236;SDS011;11787;52.018;8.570;2022-08-25T05:50:12;5.93;;;3.65;;
23236;SDS011;11787;52.018;8.570;2022-08-25T05:52:37;7.53;;;4.00;;
23236;SDS011;11787;52.018;8.570;2022-08-25T05:55:03;8.38;;;3.88;;
23236;SDS011;11787;52.018;8.570;2022-08-25T05:57:29;8.98;;;5.32;;
23236;SDS011;11787;52.018;8.570;2022-08-25T06:20:04;6.50;;;4.00;;
23236;SDS011;11787;52.018;8.570;2022-08-25T06:54:06;6.63;;;3.90;;
23236;SDS011;11787;52.018;8.570;2022-08-25T06:56:34;7.78;;;3.70;;
23236;SDS011;11787;52.018;8.570;2022-08-25T06:59:00;6.90;;;3.80;;
23236;SDS011;11787;52.018;8.570;2022-08-25T07:11:13;7.07;;;3.67;;
23236;SDS011;11787;52.018;8.570;2022-08-25T07:13:39;6.65;;;3.83;;
23236;SDS011;11787;52.018;8.570;2022-08-25T07:50:12;7.72;;;3.72;;
23236;SDS011;11787;52.018;8.570;2022-08-25T08:19:24;8.10;;;6.07;;
23236;SDS011;11787;52.018;8.570;2022-08-25T08:21:50;8.88;;;6.10;;
23236;SDS011;11787;52.018;8.570;2022-08-25T08:24:15;6.75;;;5.70;;
23236;SDS011;11787;52.018;8.570;2022-08-25T08:26:41;8.65;;;5.75;;
23236;SDS011;11787;52.018;8.570;2022-08-25T08:29:06;10.35;;;6.28;;
23236;SDS011;11787;52.018;8.570;2022-08-25T08:31:32;9.38;;;6.80;;
23236;SDS011;11787;52.018;8.570;2022-08-25T08:33:58;9.43;;;7.00;;
23236;SDS011;11787;52.018;8.570;2022-08-25T08:36:24;8.30;;;6.57;;
23236;SDS011;11787;52.018;8.570;2022-08-25T08:38:50;9.57;;;7.50;;
23236;SDS011;11787;52.018;8.570;2022-08-25T08:44:41;9.48;;;7.18;;
23236;SDS011;11787;52.018;8.570;2022-08-25T08:52:49;12.07;;;7.43;;
23236;SDS011;11787;52.018;8.570;2022-08-25T14:11:27;9.98;;;5.82;;
23236;SDS011;11787;52.018;8.570;2022-08-25T14:14:09;8.52;;;5.40;;
23236;SDS011;11787;52.018;8.570;2022-08-25T14:17:05;6.22;;;5.57;;
23236;SDS011;11787;52.018;8.570;2022-08-25T14:19:33;7.82;;;5.50;;
23236;SDS011;11787;52.018;8.570;2022-08-25T14:22:01;5.90;;;5.40;;
23236;SDS011;11787;52.018;8.570;2022-08-25T14:24:32;7.72;;;5.45;;
23236;SDS011;11787;52.018;8.570;2022-08-25T14:26:59;7.70;;;5.88;;
23236;SDS011;11787;52.018;8.570;2022-08-25T14:29:26;6.25;;;5.45;;
23236;SDS011;11787;52.018;8.570;2022-08-25T14:31:53;10.75;;;5.70;;
23236;SDS011;11787;52.018;8.570;2022-08-25T14:34:21;7.90;;;5.85;;
23236;SDS011;11787;52.018;8.570;2022-08-25T14:36:53;7.97;;;5.43;;
23236;SDS011;11787;52.018;8.570;2022-08-25T14:39:19;8.10;;;6.03;;
23236;SDS011;11787;52.018;8.570;2022-08-25T14:41:45;7.13;;;5.10;;
23236;SDS011;11787;52.018;8.570;2022-08-25T14:44:12;6.70;;;5.18;;
23236;SDS011;11787;52.018;8.570;2022-08-25T14:46:46;5.82;;;5.15;;
23236;SDS011;11787;52.018;8.570;2022-08-25T14:49:20;7.30;;;5.13;;
23236;SDS011;11787;52.018;8.570;2022-08-25T14:51:50;9.52;;;5.53;;
23236;SDS011;11787;52.018;8.570;2022-08-25T14:54:17;7.82;;;5.40;;
23236;SDS011;11787;52.018;8.570;2022-08-25T14:56:49;6.53;;;5.40;;
23236;SDS011;11787;52.018;8.570;2022-08-25T14:59:15;9.30;;;6.30;;
23236;SDS011;11787;52.018;8.570;2022-08-25T15:01:41;11.25;;;5.50;;
23236;SDS011;11787;52.018;8.570;2022-08-25T15:04:08;8.05;;;5.45;;
23236;SDS011;11787;52.018;8.570;2022-08-25T15:06:37;6.97;;;5.35;;
23236;SDS011;11787;52.018;8.570;2022-08-25T15:09:04;8.68;;;5.50;;
23236;SDS011;11787;52.018;8.570;2022-08-25T15:11:35;8.48;;;4.93;;
23236;SDS011;11787;52.018;8.570;2022-08-25T15:14:05;9.38;;;5.53;;
23236;SDS011;11787;52.018;8.570;2022-08-25T15:16:34;7.28;;;5.03;;
23236;SDS011;11787;52.018;8.570;2022-08-25T15:19:03;7.18;;;5.10;;
23236;SDS011;11787;52.018;8.570;2022-08-25T15:21:30;6.45;;;5.13;;
23236;SDS011;11787;52.018;8.570;2022-08-25T15:23:56;9.45;;;5.50;;
23236;SDS011;11787;52.018;8.570;2022-08-25T15:26:22;9.48;;;5.40;;
23236;SDS011;11787;52.018;8.570;2022-08-25T15:28:48;7.20;;;5.78;;
23236;SDS011;11787;52.018;8.570;2022-08-25T15:31:15;9.90;;;5.57;;
23236;SDS011;11787;52.018;8.570;2022-08-25T15:33:42;8.07;;;5.40;;
23236;SDS011;11787;52.018;8.570;2022-08-25T15:36:08;7.03;;;5.57;;
23236;SDS011;11787;52.018;8.570;2022-08-25T15:38:37;8.98;;;5.80;;
23236;SDS011;11787;52.018;8.570;2022-08-25T15:41:03;9.98;;;5.78;;
23236;SDS011;11787;52.018;8.570;2022-08-25T15:43:30;7.65;;;5.30;;
23236;SDS011;11787;52.018;8.570;2022-08-25T15:45:56;7.22;;;5.65;;
23236;SDS011;11787;52.018;8.570;2022-08-25T15:48:22;6.93;;;5.75;;
23236;SDS011;11787;52.018;8.570;2022-08-25T15:50:49;7.38;;;5.15;;
23236;SDS011;11787;52.018;8.570;2022-08-25T15:53:19;7.68;;;5.35;;
23236;SDS011;11787;52.018;8.570;2022-08-25T15:55:46;10.40;;;6.35;;
23236;SDS011;11787;52.018;8.570;2022-08-25T15:58:13;10.90;;;7.03;;
23236;SDS011;11787;52.018;8.570;2022-08-25T16:00:39;8.35;;;5.75;;
23236;SDS011;11787;52.018;8.570;2022-08-25T16:03:05;8.45;;;6.35;;
23236;SDS011;11787;52.018;8.570;2022-08-25T16:05:30;12.77;;;9.98;;
23236;SDS011;11787;52.018;8.570;2022-08-25T16:07:56;15.50;;;10.93;;
23236;SDS011;11787;52.018;8.570;2022-08-25T16:10:22;9.63;;;7.75;;
23236;SDS011;11787;52.018;8.570;2022-08-25T16:12:47;7.07;;;6.38;;
23236;SDS011;11787;52.018;8.570;2022-08-25T16:15:13;8.18;;;6.10;;
23236;SDS011;11787;52.018;8.570;2022-08-25T16:17:38;8.13;;;5.78;;
23236;SDS011;11787;52.018;8.570;2022-08-25T16:20:04;13.65;;;5.90;;
23236;SDS011;11787;52.018;8.570;2022-08-25T16:22:30;9.85;;;5.70;;
23236;SDS011;11787;52.018;8.570;2022-08-25T16:24:56;8.98;;;6.30;;
23236;SDS011;11787;52.018;8.570;2022-08-25T16:27:21;14.70;;;10.98;;
23236;SDS011;11787;52.018;8.570;2022-08-25T16:29:48;14.18;;;9.88;;
23236;SDS011;11787;52.018;8.570;2022-08-25T16:32:13;19.23;;;16.77;;
23236;SDS011;11787;52.018;8.570;2022-08-25T16:34:39;17.15;;;11.00;;
23236;SDS011;11787;52.018;8.570;2022-08-25T16:37:06;13.52;;;11.90;;
23236;SDS011;11787;52.018;8.570;2022-08-25T16:39:32;10.68;;;8.90;;
23236;SDS011;11787;52.018;8.570;2022-08-25T16:41:58;10.65;;;7.38;;
23236;SDS011;11787;52.018;8.570;2022-08-25T16:44:24;10.50;;;5.95;;
23236;SDS011;11787;52.018;8.570;2022-08-25T16:46:49;7.63;;;6.13;;
23236;SDS011;11787;52.018;8.570;2022-08-25T16:49:18;6.63;;;5.03;;
23236;SDS011;11787;52.018;8.570;2022-08-25T16:51:44;10.85;;;6.40;;
23236;SDS011;11787;52.018;8.570;2022-08-25T16:54:10;7.15;;;5.72;;
23236;SDS011;11787;52.018;8.570;2022-08-25T16:56:55;10.70;;;7.85;;
23236;SDS011;11787;52.018;8.570;2022-08-25T16:59:21;10.95;;;8.13;;
23236;SDS011;11787;52.018;8.570;2022-08-25T17:01:48;9.23;;;8.10;;
23236;SDS011;11787;52.018;8.570;2022-08-25T17:04:14;9.63;;;6.20;;
23236;SDS011;11787;52.018;8.570;2022-08-25T17:06:41;7.82;;;5.18;;
23236;SDS011;11787;52.018;8.570;2022-08-25T17:09:09;7.20;;;5.43;;
23236;SDS011;11787;52.018;8.570;2022-08-25T17:11:43;7.50;;;6.15;;
23236;SDS011;11787;52.018;8.570;2022-08-25T17:14:13;9.38;;;6.03;;
23236;SDS011;11787;52.018;8.570;2022-08-25T17:16:41;9.60;;;5.90;;
23236;SDS011;11787;52.018;8.570;2022-08-25T17:19:08;8.60;;;5.65;;
23236;SDS011;11787;52.018;8.570;2022-08-25T17:21:37;7.57;;;5.30;;
23236;SDS011;11787;52.018;8.570;2022-08-25T17:24:05;8.95;;;6.18;;
23236;SDS011;11787;52.018;8.570;2022-08-25T17:26:32;9.75;;;5.93;;
23236;SDS011;11787;52.018;8.570;2022-08-25T17:29:00;6.90;;;5.63;;
23236;SDS011;11787;52.018;8.570;2022-08-25T17:31:26;8.75;;;6.20;;
23236;SDS011;11787;52.018;8.570;2022-08-25T17:33:53;8.65;;;5.32;;
23236;SDS011;11787;52.018;8.570;2022-08-25T17:36:19;8.15;;;5.65;;
23236;SDS011;11787;52.018;8.570;2022-08-25T17:38:44;5.88;;;4.85;;
23236;SDS011;11787;52.018;8.570;2022-08-25T17:41:10;8.77;;;5.22;;
23236;SDS011;11787;52.018;8.570;2022-08-25T17:43:37;6.72;;;5.38;;
23236;SDS011;11787;52.018;8.570;2022-08-25T17:46:05;9.40;;;7.35;;
23236;SDS011;11787;52.018;8.570;2022-08-25T17:48:32;9.02;;;7.30;;
23236;SDS011;11787;52.018;8.570;2022-08-25T17:50:59;10.35;;;7.32;;
23236;SDS011;11787;52.018;8.570;2022-08-25T17:53:25;13.55;;;5.97;;
23236;SDS011;11787;52.018;8.570;2022-08-25T17:58:25;8.30;;;6.32;;
23236;SDS011;11787;52.018;8.570;2022-08-25T18:00:51;8.80;;;6.43;;
23236;SDS011;11787;52.018;8.570;2022-08-25T18:03:17;6.63;;;5.88;;
23236;SDS011;11787;52.018;8.570;2022-08-25T18:05:43;10.00;;;6.35;;
23236;SDS011;11787;52.018;8.570;2022-08-25T18:08:09;12.55;;;10.43;;
23236;SDS011;11787;52.018;8.570;2022-08-25T18:10:36;33.80;;;30.27;;
23236;SDS011;11787;52.018;8.570;2022-08-25T18:13:02;26.80;;;22.08;;
23236;SDS011;11787;52.018;8.570;2022-08-25T18:15:28;24.67;;;20.15;;
23236;SDS011;11787;52.018;8.570;2022-08-25T18:17:54;18.50;;;14.25;;
23236;SDS011;11787;52.018;8.570;2022-08-25T18:20:21;10.40;;;8.27;;
23236;SDS011;11787;52.018;8.570;2022-08-25T18:22:47;11.25;;;8.90;;
23236;SDS011;11787;52.018;8.570;2022-08-25T18:25:13;12.80;;;8.38;;
23236;SDS011;11787;52.018;8.570;2022-08-25T18:27:39;11.30;;;7.25;;
23236;SDS011;11787;52.018;8.570;2022-08-25T18:30:06;12.55;;;6.75;;
23236;SDS011;11787;52.018;8.570;2022-08-25T18:32:32;12.57;;;8.55;;
23236;SDS011;11787;52.018;8.570;2022-08-25T19:41:18;12.35;;;6.53;;
23236;SDS011;11787;52.018;8.570;2022-08-25T19:43:47;10.27;;;7.18;;
23236;SDS011;11787;52.018;8.570;2022-08-25T19:46:14;9.90;;;7.35;;
23236;SDS011;11787;52.018;8.570;2022-08-25T19:48:40;9.65;;;7.40;;
23236;SDS011;11787;52.018;8.570;2022-08-25T19:51:06;10.10;;;7.40;;
23236;SDS011;11787;52.018;8.570;2022-08-25T20:45:03;11.70;;;8.70;;
